createdAt,value
2019-05-11T00:00:34.099Z,51.80
2019-05-11T00:01:09.303Z,53.20
2019-05-11T00:01:44.798Z,59.30
2019-05-11T00:02:20.298Z,63.00
2019-05-11T00:02:55.886Z,60.60
2019-05-11T00:03:31.513Z,56.00
2019-05-11T00:04:07.082Z,53.90
2019-05-11T00:04:42.740Z,53.70
2019-05-11T00:05:17.878Z,52.40
2019-05-11T00:05:53.056Z,55.60
2019-05-11T00:06:28.379Z,57.40
2019-05-11T00:07:03.859Z,53.60
2019-05-11T00:07:39.662Z,53.20
2019-05-11T00:08:15.180Z,54.10
2019-05-11T00:08:50.653Z,55.60
2019-05-11T00:09:25.974Z,59.50
2019-05-11T00:10:01.403Z,62.80
2019-05-11T00:10:36.699Z,59.70
2019-05-11T00:11:11.792Z,58.30
2019-05-11T00:11:47.073Z,57.10
2019-05-11T00:12:22.284Z,59.60
2019-05-11T00:12:57.857Z,62.80
2019-05-11T00:13:33.069Z,63.20
2019-05-11T00:14:08.265Z,59.90
2019-05-11T00:14:43.478Z,59.20
2019-05-11T00:15:18.740Z,60.90
2019-05-11T00:15:54.081Z,66.00
2019-05-11T00:16:29.343Z,66.40
2019-05-11T00:17:04.742Z,61.80
2019-05-11T00:17:39.922Z,60.90
2019-05-11T00:18:15.218Z,62.60
2019-05-11T00:18:50.586Z,59.20
2019-05-11T00:19:26.101Z,57.40
2019-05-11T00:20:01.589Z,56.70
2019-05-11T00:20:36.800Z,59.50
2019-05-11T00:21:12.505Z,58.90
2019-05-11T00:21:47.721Z,57.00
2019-05-11T00:22:22.896Z,66.10
2019-05-11T00:22:58.612Z,66.30
2019-05-11T00:23:34.192Z,63.40
2019-05-11T00:24:09.496Z,62.30
2019-05-11T00:24:44.889Z,63.60
2019-05-11T00:25:20.286Z,63.30
2019-05-11T00:25:55.557Z,63.10
2019-05-11T00:26:31.009Z,63.80
2019-05-11T00:27:06.094Z,64.50
2019-05-11T00:27:41.576Z,60.90
2019-05-11T00:28:17.054Z,60.10
2019-05-11T00:28:52.468Z,61.40
2019-05-11T00:29:28.094Z,59.80
2019-05-11T00:30:03.305Z,61.50
2019-05-11T00:30:38.627Z,59.80
2019-05-11T00:31:14.207Z,64.30
2019-05-11T00:31:49.534Z,72.80
2019-05-11T00:32:25.163Z,69.90
2019-05-11T00:33:00.758Z,69.70
2019-05-11T00:33:36.233Z,67.90
2019-05-11T00:34:12.256Z,66.70
2019-05-11T00:34:47.426Z,67.10
2019-05-11T00:35:22.732Z,68.20
2019-05-11T00:35:58.014Z,67.70
2019-05-11T00:36:33.270Z,61.40
2019-05-11T00:37:08.709Z,70.50
2019-05-11T00:37:43.989Z,68.30
2019-05-11T00:38:19.402Z,66.20
2019-05-11T00:38:54.702Z,70.20
2019-05-11T00:39:30.119Z,69.60
2019-05-11T00:40:14.055Z,70.10
2019-05-11T00:40:40.586Z,74.90
2019-05-11T00:41:15.973Z,74.50
2019-05-11T00:41:51.649Z,71.40
2019-05-11T00:42:27.088Z,71.10
2019-05-11T00:43:02.954Z,67.20
2019-05-11T00:43:38.416Z,67.60
2019-05-11T00:44:13.616Z,65.30
2019-05-11T00:44:49.030Z,63.40
2019-05-11T00:45:24.305Z,62.90
2019-05-11T00:45:59.909Z,62.60
2019-05-11T00:46:35.301Z,65.00
2019-05-11T00:47:10.621Z,69.90
2019-05-11T00:47:45.868Z,68.80
2019-05-11T00:48:21.251Z,71.50
2019-05-11T00:48:56.561Z,68.50
2019-05-11T00:49:31.938Z,64.80
2019-05-11T00:50:07.142Z,65.60
2019-05-11T00:50:42.328Z,65.10
2019-05-11T00:51:17.444Z,65.50
2019-05-11T00:51:52.713Z,66.20
2019-05-11T00:52:28.028Z,63.00
2019-05-11T00:53:03.356Z,58.90
2019-05-11T00:53:38.713Z,64.20
2019-05-11T00:54:14.298Z,67.10
2019-05-11T00:54:49.843Z,66.00
2019-05-11T00:55:25.453Z,64.00
2019-05-11T00:56:00.874Z,65.70
2019-05-11T00:56:36.350Z,69.50
2019-05-11T00:57:11.968Z,68.00
2019-05-11T00:57:47.248Z,66.20
2019-05-11T00:58:22.470Z,70.20
2019-05-11T00:58:57.656Z,74.90
2019-05-11T00:59:32.867Z,73.80
2019-05-11T01:00:08.246Z,67.80
2019-05-11T01:00:43.585Z,64.90
2019-05-11T01:01:18.856Z,67.40
2019-05-11T01:01:54.076Z,68.30
2019-05-11T01:02:29.676Z,66.20
2019-05-11T01:03:04.978Z,63.70
2019-05-11T01:03:40.675Z,66.50
2019-05-11T01:04:16.477Z,65.20
2019-05-11T01:04:51.744Z,63.80
2019-05-11T01:05:26.998Z,66.30
2019-05-11T01:06:02.380Z,71.00
2019-05-11T01:06:37.510Z,70.70
2019-05-11T01:07:12.796Z,69.50
2019-05-11T01:07:48.105Z,67.90
2019-05-11T01:08:23.294Z,73.60
2019-05-11T01:08:58.517Z,72.70
2019-05-11T01:09:33.685Z,63.00
2019-05-11T01:10:23.213Z,58.50
2019-05-11T01:10:44.316Z,58.90
2019-05-11T01:11:19.738Z,62.00
2019-05-11T01:11:55.132Z,63.30
2019-05-11T01:12:30.347Z,57.60
2019-05-11T01:13:05.619Z,57.50
2019-05-11T01:13:40.937Z,62.40
2019-05-11T01:14:15.917Z,61.50
2019-05-11T01:14:51.127Z,62.90
2019-05-11T01:15:26.556Z,60.00
2019-05-11T01:16:01.783Z,56.60
2019-05-11T01:16:37.168Z,58.60
2019-05-11T01:17:12.684Z,60.90
2019-05-11T01:17:48.170Z,58.60
2019-05-11T01:18:23.584Z,59.00
2019-05-11T01:18:58.675Z,57.50
2019-05-11T01:19:34.206Z,54.20
2019-05-11T01:20:09.380Z,59.30
2019-05-11T01:20:44.742Z,56.00
2019-05-11T01:21:19.847Z,55.80
2019-05-11T01:21:55.459Z,56.70
2019-05-11T01:22:30.551Z,58.30
2019-05-11T01:23:05.761Z,58.10
2019-05-11T01:23:41.052Z,59.60
2019-05-11T01:24:16.457Z,57.80
2019-05-11T01:24:51.649Z,56.80
2019-05-11T01:25:26.696Z,58.10
2019-05-11T01:26:01.980Z,62.80
2019-05-11T01:26:37.453Z,60.10
2019-05-11T01:27:12.712Z,58.00
2019-05-11T01:27:48.125Z,57.50
2019-05-11T01:28:23.807Z,54.10
2019-05-11T01:28:59.062Z,56.50
2019-05-11T01:29:34.240Z,58.20
2019-05-11T01:30:09.570Z,54.50
2019-05-11T01:30:44.772Z,52.30
2019-05-11T01:31:20.080Z,52.70
2019-05-11T01:31:55.369Z,55.00
2019-05-11T01:32:30.871Z,54.40
2019-05-11T01:33:06.170Z,54.60
2019-05-11T01:33:41.281Z,55.70
2019-05-11T01:34:16.577Z,53.00
2019-05-11T01:34:51.979Z,51.50
2019-05-11T01:35:27.373Z,54.50
2019-05-11T01:36:03.095Z,57.30
2019-05-11T01:36:38.073Z,54.30
2019-05-11T01:37:13.289Z,50.70
2019-05-11T01:37:48.766Z,50.00
2019-05-11T01:38:24.196Z,50.70
2019-05-11T01:38:59.385Z,53.30
2019-05-11T01:39:34.917Z,55.10
2019-05-11T01:40:09.994Z,53.50
2019-05-11T01:40:57.545Z,54.10
2019-05-11T01:41:20.646Z,54.00
2019-05-11T01:41:55.954Z,48.80
2019-05-11T01:42:31.536Z,52.70
2019-05-11T01:43:06.554Z,56.60
2019-05-11T01:43:41.844Z,53.20
2019-05-11T01:44:17.172Z,51.00
2019-05-11T01:44:52.151Z,54.70
2019-05-11T01:45:27.497Z,54.70
2019-05-11T01:46:02.892Z,54.90
2019-05-11T01:46:38.296Z,50.10
2019-05-11T01:47:13.693Z,55.80
2019-05-11T01:47:49.080Z,57.70
2019-05-11T01:48:24.592Z,58.60
2019-05-11T01:48:59.802Z,57.40
2019-05-11T01:49:34.990Z,54.20
2019-05-11T01:50:10.701Z,53.00
2019-05-11T01:50:46.111Z,54.00
2019-05-11T01:51:21.406Z,58.70
2019-05-11T01:51:56.909Z,59.10
2019-05-11T01:52:32.637Z,56.80
2019-05-11T01:53:07.829Z,57.90
2019-05-11T01:53:43.247Z,57.10
2019-05-11T01:54:18.619Z,54.30
2019-05-11T01:54:54.133Z,60.60
2019-05-11T01:55:29.638Z,64.60
2019-05-11T01:56:05.045Z,63.10
2019-05-11T01:56:40.429Z,57.50
2019-05-11T01:57:15.928Z,55.40
2019-05-11T01:57:51.322Z,57.40
2019-05-11T01:58:26.534Z,54.70
2019-05-11T01:59:02.114Z,61.20
2019-05-11T01:59:37.337Z,62.90
2019-05-11T02:00:12.440Z,59.90
2019-05-11T02:00:47.858Z,57.80
2019-05-11T02:01:23.338Z,57.70
2019-05-11T02:01:58.459Z,58.40
2019-05-11T02:02:33.747Z,63.40
2019-05-11T02:03:08.975Z,65.20
2019-05-11T02:03:44.067Z,64.10
2019-05-11T02:04:20.044Z,68.00
2019-05-11T02:04:55.329Z,64.70
2019-05-11T02:05:30.866Z,65.80
2019-05-11T02:06:06.157Z,63.70
2019-05-11T02:06:41.459Z,59.40
2019-05-11T02:07:16.695Z,61.50
2019-05-11T02:07:52.204Z,61.80
2019-05-11T02:08:27.588Z,60.60
2019-05-11T02:09:02.906Z,63.60
2019-05-11T02:09:38.287Z,65.00
2019-05-11T02:10:13.632Z,59.60
2019-05-11T02:10:48.905Z,57.20
2019-05-11T02:11:24.324Z,57.30
2019-05-11T02:11:59.604Z,62.40
2019-05-11T02:12:34.720Z,64.10
2019-05-11T02:13:10.208Z,61.80
2019-05-11T02:13:45.532Z,57.40
2019-05-11T02:14:20.804Z,58.70
2019-05-11T02:14:56.237Z,61.20
2019-05-11T02:15:31.556Z,59.80
2019-05-11T02:16:06.868Z,62.00
2019-05-11T02:16:42.067Z,64.50
2019-05-11T02:17:17.555Z,62.30
2019-05-11T02:17:52.841Z,60.80
2019-05-11T02:18:28.173Z,63.80
2019-05-11T02:19:03.562Z,61.70
2019-05-11T02:19:38.655Z,58.80
2019-05-11T02:20:13.960Z,57.20
2019-05-11T02:20:49.465Z,61.00
2019-05-11T02:21:25.149Z,69.80
2019-05-11T02:22:00.060Z,72.90
2019-05-11T02:22:35.363Z,70.10
2019-05-11T02:23:10.788Z,63.40
2019-05-11T02:23:46.175Z,63.20
2019-05-11T02:24:21.580Z,64.50
2019-05-11T02:24:56.863Z,68.60
2019-05-11T02:25:32.195Z,66.20
2019-05-11T02:26:07.285Z,68.00
2019-05-11T02:26:42.991Z,66.40
2019-05-11T02:27:18.364Z,64.80
2019-05-11T02:27:53.881Z,67.60
2019-05-11T02:28:29.172Z,74.00
2019-05-11T02:29:04.491Z,75.50
2019-05-11T02:29:41.443Z,72.40
2019-05-11T02:30:15.241Z,71.20
2019-05-11T02:30:50.435Z,72.80
2019-05-11T02:31:25.840Z,77.20
2019-05-11T02:32:01.335Z,77.40
2019-05-11T02:32:36.648Z,75.70
2019-05-11T02:33:11.925Z,72.70
2019-05-11T02:33:47.345Z,73.00
2019-05-11T02:34:22.935Z,78.00
2019-05-11T02:34:58.558Z,83.80
2019-05-11T02:35:33.951Z,93.10
2019-05-11T02:36:09.258Z,76.90
2019-05-11T02:36:44.843Z,74.80
2019-05-11T02:37:20.259Z,72.40
2019-05-11T02:37:55.964Z,67.60
2019-05-11T02:38:31.172Z,63.40
2019-05-11T02:39:06.457Z,68.40
2019-05-11T02:39:41.965Z,71.40
2019-05-11T02:40:17.168Z,67.10
2019-05-11T02:40:52.413Z,65.10
2019-05-11T02:41:36.388Z,59.10
2019-05-11T02:42:03.321Z,58.10
2019-05-11T02:42:38.991Z,63.30
2019-05-11T02:43:14.209Z,63.10
2019-05-11T02:43:49.507Z,59.10
2019-05-11T02:44:24.696Z,58.30
2019-05-11T02:44:59.984Z,62.30
2019-05-11T02:45:35.657Z,62.50
2019-05-11T02:46:11.263Z,67.40
2019-05-11T02:46:46.598Z,58.90
2019-05-11T02:47:21.883Z,58.30
2019-05-11T02:47:57.595Z,59.70
2019-05-11T02:48:33.404Z,59.10
2019-05-11T02:49:09.009Z,55.80
2019-05-11T02:49:44.384Z,57.90
2019-05-11T02:50:19.853Z,59.00
2019-05-11T02:50:55.330Z,58.70
2019-05-11T02:51:30.559Z,57.70
2019-05-11T02:52:05.942Z,56.50
2019-05-11T02:52:41.554Z,54.10
2019-05-11T02:53:16.834Z,57.30
2019-05-11T02:53:52.151Z,61.40
2019-05-11T02:54:27.420Z,65.10
2019-05-11T02:55:03.045Z,60.80
2019-05-11T02:55:38.466Z,58.30
2019-05-11T02:56:13.874Z,60.90
2019-05-11T02:56:49.463Z,64.40
2019-05-11T02:57:24.478Z,59.80
2019-05-11T02:57:59.868Z,63.00
2019-05-11T02:58:35.291Z,63.60
2019-05-11T02:59:10.956Z,56.20
2019-05-11T02:59:46.064Z,51.20
2019-05-11T03:00:21.562Z,53.60
2019-05-11T03:00:57.089Z,63.80
2019-05-11T03:01:32.559Z,65.10
2019-05-11T03:02:07.680Z,57.90
2019-05-11T03:02:42.957Z,55.40
2019-05-11T03:03:18.390Z,55.80
2019-05-11T03:03:53.884Z,54.30
2019-05-11T03:04:29.385Z,53.40
2019-05-11T03:05:04.705Z,53.50
2019-05-11T03:05:40.041Z,56.30
2019-05-11T03:06:15.206Z,55.80
2019-05-11T03:06:50.712Z,50.20
2019-05-11T03:07:25.994Z,48.30
2019-05-11T03:08:01.130Z,53.00
2019-05-11T03:08:36.716Z,53.90
2019-05-11T03:09:12.431Z,53.40
2019-05-11T03:09:47.810Z,51.90
2019-05-11T03:10:23.164Z,50.70
2019-05-11T03:10:58.261Z,51.10
2019-05-11T03:11:33.495Z,56.20
2019-05-11T03:12:09.074Z,55.90
2019-05-11T03:12:44.295Z,48.20
2019-05-11T03:13:19.574Z,47.80
2019-05-11T03:13:55.090Z,48.70
2019-05-11T03:14:30.667Z,47.50
2019-05-11T03:15:06.194Z,51.00
2019-05-11T03:15:41.398Z,52.00
2019-05-11T03:16:16.627Z,50.10
2019-05-11T03:16:51.889Z,47.60
2019-05-11T03:17:27.309Z,47.30
2019-05-11T03:18:02.742Z,47.30
2019-05-11T03:18:38.336Z,46.70
2019-05-11T03:19:13.819Z,47.90
2019-05-11T03:19:49.224Z,48.50
2019-05-11T03:20:24.546Z,46.90
2019-05-11T03:20:59.764Z,44.70
2019-05-11T03:21:35.053Z,41.30
2019-05-11T03:22:10.566Z,44.00
2019-05-11T03:22:45.945Z,43.60
2019-05-11T03:23:21.363Z,43.80
2019-05-11T03:23:56.761Z,40.80
2019-05-11T03:24:32.088Z,39.20
2019-05-11T03:25:07.487Z,45.40
2019-05-11T03:25:42.928Z,46.20
2019-05-11T03:26:18.110Z,45.50
2019-05-11T03:26:53.924Z,42.70
2019-05-11T03:27:29.298Z,39.90
2019-05-11T03:28:04.721Z,39.10
2019-05-11T03:28:40.104Z,37.40
2019-05-11T03:29:15.513Z,38.60
2019-05-11T03:29:50.892Z,45.80
2019-05-11T03:30:26.428Z,45.80
2019-05-11T03:31:01.725Z,44.30
2019-05-11T03:31:37.133Z,40.30
2019-05-11T03:32:12.319Z,35.80
2019-05-11T03:32:47.728Z,36.70
2019-05-11T03:33:22.815Z,38.10
2019-05-11T03:33:58.353Z,37.30
2019-05-11T03:34:33.668Z,39.40
2019-05-11T03:35:09.102Z,36.50
2019-05-11T03:35:44.557Z,32.90
2019-05-11T03:36:19.956Z,35.40
2019-05-11T03:36:55.349Z,40.70
2019-05-11T03:37:30.850Z,40.00
2019-05-11T03:38:06.329Z,39.30
2019-05-11T03:38:41.696Z,40.10
2019-05-11T03:39:16.873Z,38.00
2019-05-11T03:39:51.991Z,39.60
2019-05-11T03:40:27.196Z,41.20
2019-05-11T03:41:02.515Z,40.20
2019-05-11T03:41:37.699Z,37.70
2019-05-11T03:42:15.040Z,39.70
2019-05-11T03:42:48.102Z,39.40
2019-05-11T03:43:23.330Z,43.30
2019-05-11T03:43:58.405Z,38.40
2019-05-11T03:44:33.931Z,40.30
2019-05-11T03:45:09.117Z,42.10
2019-05-11T03:45:44.660Z,37.60
2019-05-11T03:46:20.152Z,34.40
2019-05-11T03:46:55.256Z,31.30
2019-05-11T03:47:30.528Z,32.90
2019-05-11T03:48:06.044Z,34.20
2019-05-11T03:48:41.530Z,34.60
2019-05-11T03:49:16.941Z,36.90
2019-05-11T03:49:52.414Z,36.20
2019-05-11T03:50:27.880Z,33.80
2019-05-11T03:51:03.090Z,35.60
2019-05-11T03:51:38.484Z,43.30
2019-05-11T03:52:13.676Z,39.10
2019-05-11T03:52:49.098Z,33.70
2019-05-11T03:53:24.401Z,31.70
2019-05-11T03:54:00.091Z,33.60
2019-05-11T03:54:35.400Z,30.80
2019-05-11T03:55:10.732Z,31.60
2019-05-11T03:55:46.117Z,28.80
2019-05-11T03:56:21.525Z,38.40
2019-05-11T03:56:56.723Z,39.90
2019-05-11T03:57:31.934Z,31.40
2019-05-11T03:58:07.313Z,26.20
2019-05-11T03:58:42.543Z,34.90
2019-05-11T03:59:17.704Z,39.10
2019-05-11T03:59:53.326Z,33.60
2019-05-11T04:00:29.048Z,33.30
2019-05-11T04:01:04.577Z,29.40
2019-05-11T04:01:40.070Z,31.70
2019-05-11T04:02:15.585Z,32.50
2019-05-11T04:02:50.858Z,34.70
2019-05-11T04:03:26.275Z,37.10
2019-05-11T04:04:01.576Z,41.80
2019-05-11T04:04:36.800Z,41.80
2019-05-11T04:05:12.260Z,35.90
2019-05-11T04:05:47.787Z,31.80
2019-05-11T04:06:23.168Z,31.90
2019-05-11T04:06:58.381Z,35.50
2019-05-11T04:07:33.669Z,29.40
2019-05-11T04:08:08.969Z,31.60
2019-05-11T04:08:44.346Z,31.80
2019-05-11T04:09:19.753Z,34.10
2019-05-11T04:09:54.945Z,30.20
2019-05-11T04:10:30.391Z,31.20
2019-05-11T04:11:05.692Z,33.00
2019-05-11T04:11:41.402Z,32.40
2019-05-11T04:12:36.573Z,29.90
2019-05-11T04:13:12.192Z,39.80
2019-05-11T04:13:47.588Z,38.10
2019-05-11T04:14:23.020Z,32.20
2019-05-11T04:14:58.117Z,33.20
2019-05-11T04:15:33.440Z,37.30
2019-05-11T04:16:08.637Z,39.20
2019-05-11T04:16:44.161Z,37.70
2019-05-11T04:17:19.547Z,34.00
2019-05-11T04:17:54.924Z,33.10
2019-05-11T04:18:30.281Z,35.70
2019-05-11T04:19:05.693Z,35.50
2019-05-11T04:19:41.089Z,35.90
2019-05-11T04:20:16.302Z,34.00
2019-05-11T04:20:51.542Z,29.90
2019-05-11T04:21:27.171Z,28.90
2019-05-11T04:22:02.667Z,32.30
2019-05-11T04:22:37.971Z,30.90
2019-05-11T04:23:13.245Z,32.20
2019-05-11T04:23:48.769Z,31.30
2019-05-11T04:24:24.261Z,31.20
2019-05-11T04:24:59.776Z,31.10
2019-05-11T04:25:35.252Z,28.30
2019-05-11T04:26:10.740Z,32.30
2019-05-11T04:26:46.025Z,37.50
2019-05-11T04:27:21.639Z,38.30
2019-05-11T04:27:57.052Z,42.80
2019-05-11T04:28:32.540Z,35.40
2019-05-11T04:29:07.717Z,26.50
2019-05-11T04:29:42.932Z,23.30
2019-05-11T04:30:18.207Z,26.60
2019-05-11T04:30:53.442Z,35.30
2019-05-11T04:31:28.774Z,38.10
2019-05-11T04:32:04.064Z,34.10
2019-05-11T04:32:39.342Z,37.70
2019-05-11T04:33:14.973Z,35.80
2019-05-11T04:33:50.444Z,32.10
2019-05-11T04:34:25.782Z,30.40
2019-05-11T04:35:00.848Z,27.20
2019-05-11T04:35:36.051Z,23.40
2019-05-11T04:36:11.439Z,25.80
2019-05-11T04:36:46.877Z,27.10
2019-05-11T04:37:22.194Z,26.60
2019-05-11T04:37:57.501Z,28.30
2019-05-11T04:38:32.981Z,34.00
2019-05-11T04:39:08.507Z,32.00
2019-05-11T04:39:43.775Z,30.30
2019-05-11T04:40:18.902Z,33.30
2019-05-11T04:40:54.375Z,28.10
2019-05-11T04:41:29.794Z,27.90
2019-05-11T04:42:05.013Z,29.30
2019-05-11T04:42:54.214Z,29.30
2019-05-11T04:43:15.917Z,25.40
2019-05-11T04:43:51.634Z,25.50
2019-05-11T04:44:27.126Z,27.20
2019-05-11T04:45:02.348Z,28.20
2019-05-11T04:45:37.934Z,29.20
2019-05-11T04:46:13.058Z,30.50
2019-05-11T04:46:48.744Z,31.50
2019-05-11T04:47:24.082Z,36.90
2019-05-11T04:47:59.470Z,33.20
2019-05-11T04:48:35.209Z,28.60
2019-05-11T04:49:10.493Z,35.00
2019-05-11T04:49:45.939Z,36.70
2019-05-11T04:50:21.004Z,26.70
2019-05-11T04:50:56.535Z,27.50
2019-05-11T04:51:31.616Z,28.20
2019-05-11T04:52:06.853Z,25.70
2019-05-11T04:52:42.355Z,26.90
2019-05-11T04:53:17.475Z,25.20
2019-05-11T04:53:53.055Z,27.90
2019-05-11T04:54:28.759Z,28.00
2019-05-11T04:55:04.046Z,27.20
2019-05-11T04:55:39.239Z,27.50
2019-05-11T04:56:14.429Z,25.80
2019-05-11T04:56:49.961Z,24.90
2019-05-11T04:57:25.540Z,30.50
2019-05-11T04:58:00.951Z,30.90
2019-05-11T04:58:36.239Z,33.20
2019-05-11T04:59:11.707Z,33.00
2019-05-11T04:59:46.900Z,27.30
2019-05-11T05:00:22.302Z,26.50
2019-05-11T05:00:57.498Z,29.70
2019-05-11T05:01:32.810Z,31.00
2019-05-11T05:02:08.190Z,30.40
2019-05-11T05:02:43.546Z,26.20
2019-05-11T05:03:18.815Z,26.70
2019-05-11T05:03:57.787Z,41.80
2019-05-11T05:04:29.944Z,36.90
2019-05-11T05:05:05.400Z,32.50
2019-05-11T05:05:40.824Z,26.80
2019-05-11T05:06:24.350Z,26.80
2019-05-11T05:06:59.436Z,27.50
2019-05-11T05:07:26.899Z,26.10
2019-05-11T05:08:09.602Z,28.70
2019-05-11T05:08:38.195Z,28.20
2019-05-11T05:09:13.309Z,26.80
2019-05-11T05:09:49.071Z,32.60
2019-05-11T05:10:24.655Z,28.50
2019-05-11T05:11:00.766Z,22.90
2019-05-11T05:11:36.513Z,26.80
2019-05-11T05:12:13.956Z,27.00
2019-05-11T05:12:50.726Z,29.00
2019-05-11T05:13:23.213Z,26.60
2019-05-11T05:14:02.127Z,27.90
2019-05-11T05:14:32.250Z,24.70
2019-05-11T05:15:07.625Z,21.20
2019-05-11T05:15:42.876Z,28.50
2019-05-11T05:16:18.365Z,33.10
2019-05-11T05:16:54.089Z,27.80
2019-05-11T05:17:29.384Z,23.70
2019-05-11T05:18:04.998Z,20.00
2019-05-11T05:18:40.403Z,21.30
2019-05-11T05:19:15.539Z,23.40
2019-05-11T05:19:50.737Z,23.00
2019-05-11T05:20:25.965Z,26.40
2019-05-11T05:21:01.356Z,27.80
2019-05-11T05:21:36.698Z,26.60
2019-05-11T05:22:12.390Z,27.40
2019-05-11T05:22:47.834Z,28.10
2019-05-11T05:23:23.116Z,29.80
2019-05-11T05:23:58.437Z,28.30
2019-05-11T05:24:33.616Z,30.10
2019-05-11T05:25:09.148Z,27.60
2019-05-11T05:25:44.450Z,24.90
2019-05-11T05:26:19.841Z,23.00
2019-05-11T05:26:55.631Z,24.40
2019-05-11T05:27:31.046Z,25.30
2019-05-11T05:28:06.344Z,28.50
2019-05-11T05:28:43.766Z,26.10
2019-05-11T05:29:17.070Z,25.60
2019-05-11T05:29:52.285Z,30.90
2019-05-11T05:30:27.469Z,33.60
2019-05-11T05:31:02.878Z,29.60
2019-05-11T05:31:38.363Z,25.20
2019-05-11T05:32:13.680Z,23.50
2019-05-11T05:32:48.903Z,28.30
2019-05-11T05:33:24.413Z,38.10
2019-05-11T05:34:01.459Z,28.30
2019-05-11T05:34:35.447Z,25.70
2019-05-11T05:35:10.739Z,30.00
2019-05-11T05:35:45.955Z,25.60
2019-05-11T05:36:21.050Z,22.00
2019-05-11T05:36:56.473Z,27.30
2019-05-11T05:37:31.868Z,27.30
2019-05-11T05:38:07.401Z,28.10
2019-05-11T05:38:42.593Z,25.20
2019-05-11T05:39:18.012Z,25.50
2019-05-11T05:39:53.601Z,33.90
2019-05-11T05:40:29.239Z,30.20
2019-05-11T05:41:04.828Z,26.60
2019-05-11T05:41:40.065Z,28.20
2019-05-11T05:42:15.574Z,24.10
2019-05-11T05:42:51.082Z,20.50
2019-05-11T05:43:28.548Z,23.60
2019-05-11T05:44:01.520Z,29.30
2019-05-11T05:44:36.691Z,25.30
2019-05-11T05:45:12.303Z,24.20
2019-05-11T05:45:47.582Z,21.20
2019-05-11T05:46:22.998Z,22.10
2019-05-11T05:46:58.085Z,28.40
2019-05-11T05:47:33.513Z,29.20
2019-05-11T05:48:08.629Z,28.60
2019-05-11T05:48:43.638Z,28.60
2019-05-11T05:49:18.815Z,27.90
2019-05-11T05:49:54.142Z,27.10
2019-05-11T05:50:29.219Z,26.50
2019-05-11T05:51:04.636Z,28.30
2019-05-11T05:51:39.924Z,27.50
2019-05-11T05:52:15.243Z,22.20
2019-05-11T05:52:50.326Z,23.80
2019-05-11T05:53:25.806Z,24.50
2019-05-11T05:54:00.990Z,27.20
2019-05-11T05:54:36.309Z,30.40
2019-05-11T05:55:11.799Z,30.30
2019-05-11T05:55:47.348Z,31.10
2019-05-11T05:56:22.726Z,31.50
2019-05-11T05:56:57.936Z,29.60
2019-05-11T05:57:33.342Z,30.70
2019-05-11T05:58:08.550Z,25.70
2019-05-11T05:58:44.265Z,23.70
2019-05-11T05:59:19.683Z,26.30
2019-05-11T05:59:54.979Z,25.80
2019-05-11T06:00:30.299Z,29.50
2019-05-11T06:01:05.443Z,26.90
2019-05-11T06:01:40.867Z,21.80
2019-05-11T06:02:16.158Z,27.80
2019-05-11T06:02:51.386Z,27.00
2019-05-11T06:03:27.282Z,23.70
2019-05-11T06:04:02.511Z,27.70
2019-05-11T06:04:37.910Z,25.30
2019-05-11T06:05:13.127Z,21.20
2019-05-11T06:05:48.702Z,27.30
2019-05-11T06:06:24.124Z,24.70
2019-05-11T06:06:59.514Z,26.30
2019-05-11T06:07:34.818Z,26.80
2019-05-11T06:08:10.304Z,24.00
2019-05-11T06:08:45.618Z,27.60
2019-05-11T06:09:20.894Z,27.10
2019-05-11T06:09:56.116Z,29.20
2019-05-11T06:10:31.397Z,26.40
2019-05-11T06:11:06.854Z,25.80
2019-05-11T06:11:42.237Z,28.10
2019-05-11T06:12:17.805Z,27.30
2019-05-11T06:12:53.185Z,24.40
2019-05-11T06:13:43.830Z,20.60
2019-05-11T06:14:03.866Z,24.40
2019-05-11T06:14:39.074Z,26.60
2019-05-11T06:15:14.488Z,23.40
2019-05-11T06:15:49.808Z,26.40
2019-05-11T06:16:25.091Z,26.40
2019-05-11T06:17:00.720Z,21.60
2019-05-11T06:17:36.110Z,20.60
2019-05-11T06:18:11.427Z,22.30
2019-05-11T06:18:46.747Z,21.90
2019-05-11T06:19:21.964Z,28.50
2019-05-11T06:19:57.423Z,23.10
2019-05-11T06:20:32.770Z,21.90
2019-05-11T06:21:08.144Z,24.10
2019-05-11T06:21:43.567Z,22.60
2019-05-11T06:22:18.872Z,28.30
2019-05-11T06:22:53.893Z,28.40
2019-05-11T06:23:29.082Z,24.30
2019-05-11T06:24:06.789Z,23.50
2019-05-11T06:24:39.819Z,21.70
2019-05-11T06:25:15.146Z,22.10
2019-05-11T06:25:50.544Z,21.30
2019-05-11T06:26:25.842Z,23.00
2019-05-11T06:27:00.937Z,21.30
2019-05-11T06:27:36.266Z,19.10
2019-05-11T06:28:11.347Z,24.90
2019-05-11T06:28:46.897Z,23.90
2019-05-11T06:29:22.310Z,22.10
2019-05-11T06:29:57.504Z,25.80
2019-05-11T06:30:32.904Z,24.40
2019-05-11T06:31:08.286Z,25.90
2019-05-11T06:31:43.671Z,26.00
2019-05-11T06:32:19.184Z,23.60
2019-05-11T06:32:54.860Z,23.50
2019-05-11T06:33:29.968Z,22.50
2019-05-11T06:34:05.387Z,19.40
2019-05-11T06:34:40.699Z,21.20
2019-05-11T06:35:15.967Z,25.10
2019-05-11T06:35:51.294Z,26.70
2019-05-11T06:36:26.773Z,22.70
2019-05-11T06:37:02.291Z,21.40
2019-05-11T06:37:37.573Z,18.60
2019-05-11T06:38:12.911Z,23.40
2019-05-11T06:38:48.206Z,22.80
2019-05-11T06:39:23.461Z,22.80
2019-05-11T06:39:59.047Z,27.00
2019-05-11T06:40:34.055Z,25.10
2019-05-11T06:41:09.150Z,24.20
2019-05-11T06:41:44.561Z,27.70
2019-05-11T06:42:19.740Z,25.50
2019-05-11T06:42:55.169Z,20.50
2019-05-11T06:43:30.530Z,23.30
2019-05-11T06:44:05.886Z,26.10
2019-05-11T06:44:41.171Z,23.80
2019-05-11T06:45:16.577Z,19.60
2019-05-11T06:45:52.167Z,25.30
2019-05-11T06:46:27.585Z,22.10
2019-05-11T06:47:02.866Z,25.70
2019-05-11T06:47:38.372Z,31.30
2019-05-11T06:48:13.855Z,25.60
2019-05-11T06:48:49.270Z,24.50
2019-05-11T06:49:24.690Z,21.50
2019-05-11T06:50:00.024Z,22.80
2019-05-11T06:50:35.216Z,23.50
2019-05-11T06:51:10.624Z,24.80
2019-05-11T06:51:46.273Z,22.90
2019-05-11T06:52:21.571Z,19.40
2019-05-11T06:52:56.847Z,24.40
2019-05-11T06:53:32.265Z,23.60
2019-05-11T06:54:07.551Z,21.90
2019-05-11T06:54:42.780Z,22.30
2019-05-11T06:55:18.158Z,20.80
2019-05-11T06:55:53.790Z,20.80
2019-05-11T06:56:29.588Z,25.00
2019-05-11T06:57:04.888Z,17.70
2019-05-11T06:57:40.169Z,17.30
2019-05-11T06:58:15.495Z,26.70
2019-05-11T06:58:50.564Z,26.20
2019-05-11T06:59:25.720Z,19.60
2019-05-11T07:00:00.898Z,20.40
2019-05-11T07:00:36.115Z,20.10
2019-05-11T07:01:11.387Z,22.00
2019-05-11T07:01:46.943Z,22.40
2019-05-11T07:02:22.126Z,20.80
2019-05-11T07:02:57.844Z,24.80
2019-05-11T07:03:33.055Z,27.20
2019-05-11T07:04:08.470Z,25.30
2019-05-11T07:04:43.894Z,19.50
2019-05-11T07:05:19.209Z,21.10
2019-05-11T07:05:54.696Z,21.30
2019-05-11T07:06:30.687Z,22.50
2019-05-11T07:07:05.389Z,20.10
2019-05-11T07:07:47.641Z,23.60
2019-05-11T07:08:16.083Z,24.50
2019-05-11T07:08:51.707Z,21.80
2019-05-11T07:09:26.982Z,22.10
2019-05-11T07:10:02.253Z,23.50
2019-05-11T07:10:37.917Z,28.50
2019-05-11T07:11:13.243Z,27.30
2019-05-11T07:11:48.521Z,22.70
2019-05-11T07:12:23.642Z,16.90
2019-05-11T07:12:59.095Z,19.50
2019-05-11T07:13:34.187Z,22.60
2019-05-11T07:14:19.985Z,20.70
2019-05-11T07:14:44.879Z,22.10
2019-05-11T07:15:20.284Z,19.30
2019-05-11T07:15:55.695Z,21.90
2019-05-11T07:16:30.978Z,23.40
2019-05-11T07:17:06.209Z,23.90
2019-05-11T07:17:41.809Z,21.40
2019-05-11T07:18:17.431Z,20.90
2019-05-11T07:18:52.611Z,20.10
2019-05-11T07:19:28.027Z,16.60
2019-05-11T07:20:03.434Z,21.90
2019-05-11T07:20:50.208Z,20.50
2019-05-11T07:21:13.820Z,18.50
2019-05-11T07:21:49.127Z,22.50
2019-05-11T07:22:24.411Z,18.90
2019-05-11T07:22:59.728Z,19.90
2019-05-11T07:23:35.717Z,22.90
2019-05-11T07:24:11.079Z,22.00
2019-05-11T07:24:46.263Z,20.10
2019-05-11T07:25:21.644Z,20.40
2019-05-11T07:26:00.061Z,20.60
2019-05-11T07:26:32.252Z,21.00
2019-05-11T07:27:07.548Z,22.40
2019-05-11T07:27:42.761Z,20.40
2019-05-11T07:28:18.151Z,17.80
2019-05-11T07:28:53.613Z,16.60
2019-05-11T07:29:28.802Z,22.50
2019-05-11T07:30:03.943Z,23.60
2019-05-11T07:30:39.429Z,19.90
2019-05-11T07:31:14.741Z,16.10
2019-05-11T07:31:50.116Z,15.60
2019-05-11T07:32:26.062Z,19.60
2019-05-11T07:33:01.045Z,21.60
2019-05-11T07:33:37.923Z,18.90
2019-05-11T07:34:11.646Z,17.80
2019-05-11T07:34:48.660Z,19.70
2019-05-11T07:35:22.337Z,24.70
2019-05-11T07:35:58.283Z,24.00